sensor_id;sensor_type;location;lat;lon;timestamp;P1;durP1;ratioP1;P2;durP2;ratioP2
74487;SDS011;63019;51.080;13.642;2023-11-21T00:00:43;2.50;;;0.52;;
74487;SDS011;63019;51.080;13.642;2023-11-21T00:01:46;2.92;;;0.30;;
74487;SDS011;63019;51.080;13.642;2023-11-21T00:02:48;1.35;;;0.38;;
74487;SDS011;63019;51.080;13.642;2023-11-21T00:03:50;1.15;;;0.50;;
74487;SDS011;63019;51.080;13.642;2023-11-21T00:04:56;2.00;;;0.43;;
74487;SDS011;63019;51.080;13.642;2023-11-21T00:05:57;1.73;;;0.50;;
74487;SDS011;63019;51.080;13.642;2023-11-21T00:06:59;0.88;;;0.50;;
74487;SDS011;63019;51.080;13.642;2023-11-21T00:08:01;6.00;;;0.55;;
74487;SDS011;63019;51.080;13.642;2023-11-21T00:09:03;8.68;;;0.77;;
74487;SDS011;63019;51.080;13.642;2023-11-21T00:10:06;1.57;;;0.40;;
74487;SDS011;63019;51.080;13.642;2023-11-21T00:11:12;1.43;;;0.50;;
74487;SDS011;63019;51.080;13.642;2023-11-21T00:12:14;1.65;;;0.50;;
74487;SDS011;63019;51.080;13.642;2023-11-21T00:13:16;2.45;;;0.60;;
74487;SDS011;63019;51.080;13.642;2023-11-21T00:14:19;2.65;;;1.42;;
74487;SDS011;63019;51.080;13.642;2023-11-21T00:15:21;1.10;;;0.50;;
74487;SDS011;63019;51.080;13.642;2023-11-21T00:16:23;2.63;;;0.80;;
74487;SDS011;63019;51.080;13.642;2023-11-21T00:17:26;2.08;;;0.52;;
74487;SDS011;63019;51.080;13.642;2023-11-21T00:18:29;0.93;;;0.50;;
74487;SDS011;63019;51.080;13.642;2023-11-21T00:19:31;1.58;;;0.50;;
74487;SDS011;63019;51.080;13.642;2023-11-21T00:20:34;1.47;;;0.53;;
74487;SDS011;63019;51.080;13.642;2023-11-21T00:21:36;1.00;;;0.60;;
74487;SDS011;63019;51.080;13.642;2023-11-21T00:22:38;1.73;;;0.50;;
74487;SDS011;63019;51.080;13.642;2023-11-21T00:23:42;5.97;;;0.60;;
74487;SDS011;63019;51.080;13.642;2023-11-21T00:24:44;1.88;;;0.47;;
74487;SDS011;63019;51.080;13.642;2023-11-21T00:25:46;3.17;;;0.60;;
74487;SDS011;63019;51.080;13.642;2023-11-21T00:26:47;1.40;;;0.50;;
74487;SDS011;63019;51.080;13.642;2023-11-21T00:27:49;2.28;;;0.50;;
74487;SDS011;63019;51.080;13.642;2023-11-21T00:28:52;1.45;;;0.52;;
74487;SDS011;63019;51.080;13.642;2023-11-21T00:29:54;4.03;;;0.60;;
74487;SDS011;63019;51.080;13.642;2023-11-21T00:30:56;2.40;;;0.70;;
74487;SDS011;63019;51.080;13.642;2023-11-21T00:31:58;0.90;;;0.60;;
74487;SDS011;63019;51.080;13.642;2023-11-21T00:32:59;2.42;;;0.70;;
74487;SDS011;63019;51.080;13.642;2023-11-21T00:34:04;4.45;;;0.85;;
74487;SDS011;63019;51.080;13.642;2023-11-21T00:35:06;3.38;;;0.70;;
74487;SDS011;63019;51.080;13.642;2023-11-21T00:36:08;3.75;;;0.60;;
74487;SDS011;63019;51.080;13.642;2023-11-21T00:37:10;2.33;;;0.57;;
74487;SDS011;63019;51.080;13.642;2023-11-21T00:38:13;1.00;;;0.68;;
74487;SDS011;63019;51.080;13.642;2023-11-21T00:39:14;3.83;;;0.68;;
74487;SDS011;63019;51.080;13.642;2023-11-21T00:40:16;1.05;;;0.50;;
74487;SDS011;63019;51.080;13.642;2023-11-21T00:41:22;2.60;;;0.60;;
74487;SDS011;63019;51.080;13.642;2023-11-21T00:42:24;1.97;;;0.60;;
74487;SDS011;63019;51.080;13.642;2023-11-21T00:43:26;2.35;;;0.70;;
74487;SDS011;63019;51.080;13.642;2023-11-21T00:44:28;4.05;;;0.70;;
74487;SDS011;63019;51.080;13.642;2023-11-21T00:45:30;2.55;;;0.47;;
74487;SDS011;63019;51.080;13.642;2023-11-21T00:46:32;2.05;;;0.75;;
74487;SDS011;63019;51.080;13.642;2023-11-21T00:47:33;1.92;;;0.57;;
74487;SDS011;63019;51.080;13.642;2023-11-21T00:48:35;2.88;;;0.80;;
74487;SDS011;63019;51.080;13.642;2023-11-21T00:49:37;2.30;;;0.65;;
74487;SDS011;63019;51.080;13.642;2023-11-21T00:50:40;3.67;;;0.60;;
74487;SDS011;63019;51.080;13.642;2023-11-21T00:51:42;3.37;;;0.53;;
74487;SDS011;63019;51.080;13.642;2023-11-21T00:52:44;3.37;;;0.60;;
74487;SDS011;63019;51.080;13.642;2023-11-21T00:53:46;2.67;;;0.63;;
74487;SDS011;63019;51.080;13.642;2023-11-21T00:54:49;2.75;;;0.60;;
74487;SDS011;63019;51.080;13.642;2023-11-21T00:55:50;2.63;;;0.65;;
74487;SDS011;63019;51.080;13.642;2023-11-21T00:56:59;3.17;;;0.70;;
74487;SDS011;63019;51.080;13.642;2023-11-21T00:58:01;4.38;;;0.50;;
74487;SDS011;63019;51.080;13.642;2023-11-21T00:59:05;2.35;;;0.57;;
74487;SDS011;63019;51.080;13.642;2023-11-21T01:00:08;0.85;;;0.52;;
74487;SDS011;63019;51.080;13.642;2023-11-21T01:01:18;2.10;;;0.52;;
74487;SDS011;63019;51.080;13.642;2023-11-21T01:02:20;4.73;;;0.70;;
74487;SDS011;63019;51.080;13.642;2023-11-21T01:03:22;5.30;;;0.50;;
74487;SDS011;63019;51.080;13.642;2023-11-21T01:04:24;5.78;;;0.70;;
74487;SDS011;63019;51.080;13.642;2023-11-21T01:05:26;4.03;;;0.77;;
74487;SDS011;63019;51.080;13.642;2023-11-21T01:06:28;3.22;;;0.70;;
74487;SDS011;63019;51.080;13.642;2023-11-21T01:07:31;3.60;;;0.60;;
74487;SDS011;63019;51.080;13.642;2023-11-21T01:08:33;0.80;;;0.50;;
74487;SDS011;63019;51.080;13.642;2023-11-21T01:09:34;3.28;;;0.63;;
74487;SDS011;63019;51.080;13.642;2023-11-21T01:10:36;2.35;;;0.90;;
74487;SDS011;63019;51.080;13.642;2023-11-21T01:11:38;2.97;;;0.80;;
74487;SDS011;63019;51.080;13.642;2023-11-21T01:12:40;2.80;;;0.63;;
74487;SDS011;63019;51.080;13.642;2023-11-21T01:13:42;2.87;;;0.60;;
74487;SDS011;63019;51.080;13.642;2023-11-21T01:14:46;1.80;;;0.40;;
74487;SDS011;63019;51.080;13.642;2023-11-21T01:15:48;2.67;;;0.70;;
74487;SDS011;63019;51.080;13.642;2023-11-21T01:16:50;1.48;;;0.60;;
74487;SDS011;63019;51.080;13.642;2023-11-21T01:17:52;2.90;;;0.70;;
74487;SDS011;63019;51.080;13.642;2023-11-21T01:18:54;2.92;;;0.73;;
74487;SDS011;63019;51.080;13.642;2023-11-21T01:19:56;5.43;;;0.60;;
74487;SDS011;63019;51.080;13.642;2023-11-21T01:20:59;1.40;;;0.50;;
74487;SDS011;63019;51.080;13.642;2023-11-21T01:22:01;1.92;;;0.60;;
74487;SDS011;63019;51.080;13.642;2023-11-21T01:23:03;4.17;;;0.60;;
74487;SDS011;63019;51.080;13.642;2023-11-21T01:24:06;3.53;;;0.63;;
74487;SDS011;63019;51.080;13.642;2023-11-21T01:25:08;5.72;;;0.80;;
74487;SDS011;63019;51.080;13.642;2023-11-21T01:26:12;4.22;;;0.60;;
74487;SDS011;63019;51.080;13.642;2023-11-21T01:27:13;1.98;;;0.85;;
74487;SDS011;63019;51.080;13.642;2023-11-21T01:28:16;1.40;;;0.68;;
74487;SDS011;63019;51.080;13.642;2023-11-21T01:29:18;2.50;;;0.60;;
74487;SDS011;63019;51.080;13.642;2023-11-21T01:30:19;4.20;;;0.60;;
74487;SDS011;63019;51.080;13.642;2023-11-21T01:31:21;4.05;;;0.40;;
74487;SDS011;63019;51.080;13.642;2023-11-21T01:32:23;1.30;;;0.50;;
74487;SDS011;63019;51.080;13.642;2023-11-21T01:33:25;1.77;;;0.63;;
74487;SDS011;63019;51.080;13.642;2023-11-21T01:34:27;2.67;;;0.50;;
74487;SDS011;63019;51.080;13.642;2023-11-21T01:35:29;1.65;;;0.55;;
74487;SDS011;63019;51.080;13.642;2023-11-21T01:36:31;1.50;;;0.70;;
74487;SDS011;63019;51.080;13.642;2023-11-21T01:37:33;1.50;;;0.55;;
74487;SDS011;63019;51.080;13.642;2023-11-21T01:38:35;2.55;;;0.60;;
74487;SDS011;63019;51.080;13.642;2023-11-21T01:39:37;2.25;;;0.95;;
74487;SDS011;63019;51.080;13.642;2023-11-21T01:40:40;1.10;;;0.60;;
74487;SDS011;63019;51.080;13.642;2023-11-21T01:41:42;6.05;;;1.17;;
74487;SDS011;63019;51.080;13.642;2023-11-21T01:42:47;2.83;;;0.65;;
74487;SDS011;63019;51.080;13.642;2023-11-21T01:43:49;2.03;;;0.63;;
74487;SDS011;63019;51.080;13.642;2023-11-21T01:44:52;10.57;;;1.07;;
74487;SDS011;63019;51.080;13.642;2023-11-21T01:45:56;2.33;;;0.60;;
74487;SDS011;63019;51.080;13.642;2023-11-21T01:46:59;1.52;;;0.63;;
74487;SDS011;63019;51.080;13.642;2023-11-21T01:48:01;2.67;;;0.60;;
74487;SDS011;63019;51.080;13.642;2023-11-21T01:49:04;2.35;;;0.80;;
74487;SDS011;63019;51.080;13.642;2023-11-21T01:50:12;3.00;;;0.60;;
74487;SDS011;63019;51.080;13.642;2023-11-21T01:51:17;0.85;;;0.50;;
74487;SDS011;63019;51.080;13.642;2023-11-21T01:52:20;3.35;;;0.80;;
74487;SDS011;63019;51.080;13.642;2023-11-21T01:53:23;3.58;;;0.85;;
74487;SDS011;63019;51.080;13.642;2023-11-21T01:54:27;4.90;;;0.90;;
74487;SDS011;63019;51.080;13.642;2023-11-21T01:55:32;6.60;;;0.90;;
74487;SDS011;63019;51.080;13.642;2023-11-21T01:56:35;1.05;;;0.68;;
74487;SDS011;63019;51.080;13.642;2023-11-21T01:57:37;3.40;;;0.90;;
74487;SDS011;63019;51.080;13.642;2023-11-21T01:58:40;3.47;;;1.00;;
74487;SDS011;63019;51.080;13.642;2023-11-21T01:59:42;2.67;;;0.70;;
74487;SDS011;63019;51.080;13.642;2023-11-21T02:00:46;1.83;;;0.73;;
74487;SDS011;63019;51.080;13.642;2023-11-21T02:01:51;4.10;;;0.90;;
74487;SDS011;63019;51.080;13.642;2023-11-21T02:02:53;3.35;;;0.70;;
74487;SDS011;63019;51.080;13.642;2023-11-21T02:03:55;2.97;;;1.00;;
74487;SDS011;63019;51.080;13.642;2023-11-21T02:04:57;3.90;;;0.70;;
74487;SDS011;63019;51.080;13.642;2023-11-21T02:05:59;4.03;;;0.90;;
74487;SDS011;63019;51.080;13.642;2023-11-21T02:07:02;2.08;;;0.68;;
74487;SDS011;63019;51.080;13.642;2023-11-21T02:08:06;5.00;;;0.95;;
74487;SDS011;63019;51.080;13.642;2023-11-21T02:09:10;3.33;;;0.93;;
74487;SDS011;63019;51.080;13.642;2023-11-21T02:10:16;2.05;;;0.90;;
74487;SDS011;63019;51.080;13.642;2023-11-21T02:11:18;2.13;;;0.70;;
74487;SDS011;63019;51.080;13.642;2023-11-21T02:12:20;2.45;;;1.00;;
74487;SDS011;63019;51.080;13.642;2023-11-21T02:13:22;4.30;;;0.98;;
74487;SDS011;63019;51.080;13.642;2023-11-21T02:14:25;3.03;;;0.90;;
74487;SDS011;63019;51.080;13.642;2023-11-21T02:15:29;2.90;;;0.80;;
74487;SDS011;63019;51.080;13.642;2023-11-21T02:16:31;1.93;;;1.17;;
74487;SDS011;63019;51.080;13.642;2023-11-21T02:17:37;3.95;;;0.80;;
74487;SDS011;63019;51.080;13.642;2023-11-21T02:18:40;4.32;;;0.80;;
74487;SDS011;63019;51.080;13.642;2023-11-21T02:19:43;6.40;;;1.20;;
74487;SDS011;63019;51.080;13.642;2023-11-21T02:20:46;4.18;;;0.90;;
74487;SDS011;63019;51.080;13.642;2023-11-21T02:21:51;5.40;;;0.82;;
74487;SDS011;63019;51.080;13.642;2023-11-21T02:22:54;5.60;;;0.80;;
74487;SDS011;63019;51.080;13.642;2023-11-21T02:24:01;3.30;;;0.60;;
74487;SDS011;63019;51.080;13.642;2023-11-21T02:25:03;2.35;;;0.70;;
74487;SDS011;63019;51.080;13.642;2023-11-21T02:26:05;2.63;;;0.60;;
74487;SDS011;63019;51.080;13.642;2023-11-21T02:27:07;4.90;;;1.20;;
74487;SDS011;63019;51.080;13.642;2023-11-21T02:28:09;6.75;;;0.95;;
74487;SDS011;63019;51.080;13.642;2023-11-21T02:29:14;3.88;;;0.90;;
74487;SDS011;63019;51.080;13.642;2023-11-21T02:30:18;2.10;;;0.68;;
74487;SDS011;63019;51.080;13.642;2023-11-21T02:31:20;3.47;;;0.68;;
74487;SDS011;63019;51.080;13.642;2023-11-21T02:32:24;4.53;;;0.60;;
74487;SDS011;63019;51.080;13.642;2023-11-21T02:33:27;2.55;;;0.65;;
74487;SDS011;63019;51.080;13.642;2023-11-21T02:34:29;2.92;;;0.70;;
74487;SDS011;63019;51.080;13.642;2023-11-21T02:35:30;2.15;;;0.60;;
74487;SDS011;63019;51.080;13.642;2023-11-21T02:36:33;4.47;;;0.80;;
74487;SDS011;63019;51.080;13.642;2023-11-21T02:37:36;2.50;;;0.50;;
74487;SDS011;63019;51.080;13.642;2023-11-21T02:38:38;5.90;;;0.70;;
74487;SDS011;63019;51.080;13.642;2023-11-21T02:39:39;4.43;;;1.02;;
74487;SDS011;63019;51.080;13.642;2023-11-21T02:40:42;2.25;;;0.50;;
74487;SDS011;63019;51.080;13.642;2023-11-21T02:41:44;4.05;;;0.70;;
74487;SDS011;63019;51.080;13.642;2023-11-21T02:42:46;2.05;;;0.60;;
74487;SDS011;63019;51.080;13.642;2023-11-21T02:43:48;3.97;;;0.73;;
74487;SDS011;63019;51.080;13.642;2023-11-21T02:44:50;2.60;;;0.65;;
74487;SDS011;63019;51.080;13.642;2023-11-21T02:45:52;1.73;;;0.50;;
74487;SDS011;63019;51.080;13.642;2023-11-21T02:46:54;5.80;;;0.77;;
74487;SDS011;63019;51.080;13.642;2023-11-21T02:47:56;8.07;;;0.70;;
74487;SDS011;63019;51.080;13.642;2023-11-21T02:49:03;1.77;;;0.50;;
74487;SDS011;63019;51.080;13.642;2023-11-21T02:50:05;2.15;;;0.63;;
74487;SDS011;63019;51.080;13.642;2023-11-21T02:51:09;5.15;;;1.05;;
74487;SDS011;63019;51.080;13.642;2023-11-21T02:52:11;3.40;;;0.75;;
74487;SDS011;63019;51.080;13.642;2023-11-21T02:53:13;4.72;;;1.27;;
74487;SDS011;63019;51.080;13.642;2023-11-21T02:54:16;8.43;;;0.70;;
74487;SDS011;63019;51.080;13.642;2023-11-21T02:55:20;5.13;;;0.80;;
74487;SDS011;63019;51.080;13.642;2023-11-21T02:56:22;1.73;;;0.50;;
74487;SDS011;63019;51.080;13.642;2023-11-21T02:57:24;2.53;;;0.70;;
74487;SDS011;63019;51.080;13.642;2023-11-21T02:58:26;1.45;;;0.52;;
74487;SDS011;63019;51.080;13.642;2023-11-21T02:59:27;4.55;;;0.57;;
74487;SDS011;63019;51.080;13.642;2023-11-21T03:00:29;4.93;;;1.00;;
74487;SDS011;63019;51.080;13.642;2023-11-21T03:01:31;3.58;;;0.90;;
74487;SDS011;63019;51.080;13.642;2023-11-21T03:02:34;2.40;;;0.50;;
74487;SDS011;63019;51.080;13.642;2023-11-21T03:03:41;3.63;;;1.13;;
74487;SDS011;63019;51.080;13.642;2023-11-21T03:04:43;2.17;;;0.75;;
74487;SDS011;63019;51.080;13.642;2023-11-21T03:05:45;5.35;;;0.90;;
74487;SDS011;63019;51.080;13.642;2023-11-21T03:06:47;4.05;;;0.95;;
74487;SDS011;63019;51.080;13.642;2023-11-21T03:07:49;4.87;;;0.73;;
74487;SDS011;63019;51.080;13.642;2023-11-21T03:08:50;4.03;;;0.60;;
74487;SDS011;63019;51.080;13.642;2023-11-21T03:09:52;4.85;;;0.90;;
74487;SDS011;63019;51.080;13.642;2023-11-21T03:10:54;6.40;;;0.90;;
74487;SDS011;63019;51.080;13.642;2023-11-21T03:11:57;3.58;;;0.73;;
74487;SDS011;63019;51.080;13.642;2023-11-21T03:12:59;5.07;;;0.95;;
74487;SDS011;63019;51.080;13.642;2023-11-21T03:14:00;4.60;;;0.80;;
74487;SDS011;63019;51.080;13.642;2023-11-21T03:15:03;4.18;;;0.65;;
74487;SDS011;63019;51.080;13.642;2023-11-21T03:16:10;2.88;;;0.80;;
74487;SDS011;63019;51.080;13.642;2023-11-21T03:17:12;2.90;;;0.77;;
74487;SDS011;63019;51.080;13.642;2023-11-21T03:18:17;2.13;;;0.60;;
74487;SDS011;63019;51.080;13.642;2023-11-21T03:19:19;6.70;;;1.10;;
74487;SDS011;63019;51.080;13.642;2023-11-21T03:20:21;2.22;;;0.70;;
74487;SDS011;63019;51.080;13.642;2023-11-21T03:21:23;3.63;;;0.80;;
74487;SDS011;63019;51.080;13.642;2023-11-21T03:22:26;3.70;;;0.57;;
74487;SDS011;63019;51.080;13.642;2023-11-21T03:23:27;3.85;;;1.48;;
74487;SDS011;63019;51.080;13.642;2023-11-21T03:24:29;4.53;;;0.70;;
74487;SDS011;63019;51.080;13.642;2023-11-21T03:25:32;3.70;;;0.77;;
74487;SDS011;63019;51.080;13.642;2023-11-21T03:26:34;4.93;;;0.88;;
74487;SDS011;63019;51.080;13.642;2023-11-21T03:27:36;5.85;;;0.90;;
74487;SDS011;63019;51.080;13.642;2023-11-21T03:28:38;3.47;;;0.97;;
74487;SDS011;63019;51.080;13.642;2023-11-21T03:29:40;1.25;;;0.60;;
74487;SDS011;63019;51.080;13.642;2023-11-21T03:30:42;2.67;;;1.02;;
74487;SDS011;63019;51.080;13.642;2023-11-21T03:31:44;5.40;;;1.10;;
74487;SDS011;63019;51.080;13.642;2023-11-21T03:32:46;5.93;;;0.90;;
74487;SDS011;63019;51.080;13.642;2023-11-21T03:33:48;5.30;;;1.00;;
74487;SDS011;63019;51.080;13.642;2023-11-21T03:34:56;4.30;;;0.80;;
74487;SDS011;63019;51.080;13.642;2023-11-21T03:36:00;7.82;;;1.00;;
74487;SDS011;63019;51.080;13.642;2023-11-21T03:37:02;5.25;;;0.88;;
74487;SDS011;63019;51.080;13.642;2023-11-21T03:38:04;4.38;;;0.73;;
74487;SDS011;63019;51.080;13.642;2023-11-21T03:39:06;4.67;;;1.00;;
74487;SDS011;63019;51.080;13.642;2023-11-21T03:40:08;2.53;;;0.65;;
74487;SDS011;63019;51.080;13.642;2023-11-21T03:41:10;5.55;;;1.10;;
74487;SDS011;63019;51.080;13.642;2023-11-21T03:42:12;4.72;;;0.90;;
74487;SDS011;63019;51.080;13.642;2023-11-21T03:43:14;5.88;;;0.85;;
74487;SDS011;63019;51.080;13.642;2023-11-21T03:44:16;4.25;;;1.10;;
74487;SDS011;63019;51.080;13.642;2023-11-21T03:45:19;4.47;;;0.88;;
74487;SDS011;63019;51.080;13.642;2023-11-21T03:46:20;2.55;;;0.90;;
74487;SDS011;63019;51.080;13.642;2023-11-21T03:47:22;4.07;;;0.90;;
74487;SDS011;63019;51.080;13.642;2023-11-21T03:48:24;2.38;;;0.60;;
74487;SDS011;63019;51.080;13.642;2023-11-21T03:49:26;1.60;;;0.87;;
74487;SDS011;63019;51.080;13.642;2023-11-21T03:50:28;5.07;;;1.00;;
74487;SDS011;63019;51.080;13.642;2023-11-21T03:51:30;3.35;;;0.90;;
74487;SDS011;63019;51.080;13.642;2023-11-21T03:52:32;4.53;;;1.08;;
74487;SDS011;63019;51.080;13.642;2023-11-21T03:53:34;8.02;;;1.00;;
74487;SDS011;63019;51.080;13.642;2023-11-21T03:54:36;3.00;;;0.77;;
74487;SDS011;63019;51.080;13.642;2023-11-21T03:55:38;9.07;;;1.23;;
74487;SDS011;63019;51.080;13.642;2023-11-21T03:56:40;4.18;;;1.13;;
74487;SDS011;63019;51.080;13.642;2023-11-21T03:57:41;6.40;;;1.05;;
74487;SDS011;63019;51.080;13.642;2023-11-21T03:58:43;4.13;;;1.15;;
74487;SDS011;63019;51.080;13.642;2023-11-21T03:59:45;4.13;;;1.00;;
74487;SDS011;63019;51.080;13.642;2023-11-21T04:00:47;5.85;;;1.05;;
74487;SDS011;63019;51.080;13.642;2023-11-21T04:01:52;4.15;;;0.90;;
74487;SDS011;63019;51.080;13.642;2023-11-21T04:02:56;7.78;;;1.10;;
74487;SDS011;63019;51.080;13.642;2023-11-21T04:03:58;6.05;;;1.23;;
74487;SDS011;63019;51.080;13.642;2023-11-21T04:05:00;4.65;;;1.08;;
74487;SDS011;63019;51.080;13.642;2023-11-21T04:06:02;3.70;;;1.25;;
74487;SDS011;63019;51.080;13.642;2023-11-21T04:07:04;8.02;;;1.10;;
74487;SDS011;63019;51.080;13.642;2023-11-21T04:08:06;7.53;;;1.10;;
74487;SDS011;63019;51.080;13.642;2023-11-21T04:09:08;13.00;;;1.33;;
74487;SDS011;63019;51.080;13.642;2023-11-21T04:10:10;3.03;;;1.10;;
74487;SDS011;63019;51.080;13.642;2023-11-21T04:11:14;1.88;;;0.80;;
74487;SDS011;63019;51.080;13.642;2023-11-21T04:12:16;3.75;;;0.90;;
74487;SDS011;63019;51.080;13.642;2023-11-21T04:13:20;5.93;;;1.10;;
74487;SDS011;63019;51.080;13.642;2023-11-21T04:14:22;5.93;;;1.05;;
74487;SDS011;63019;51.080;13.642;2023-11-21T04:15:24;5.55;;;1.20;;
74487;SDS011;63019;51.080;13.642;2023-11-21T04:16:25;6.57;;;1.00;;
74487;SDS011;63019;51.080;13.642;2023-11-21T04:17:27;4.55;;;1.10;;
74487;SDS011;63019;51.080;13.642;2023-11-21T04:18:29;4.63;;;1.20;;
74487;SDS011;63019;51.080;13.642;2023-11-21T04:19:31;4.85;;;1.00;;
74487;SDS011;63019;51.080;13.642;2023-11-21T04:20:33;5.03;;;1.10;;
74487;SDS011;63019;51.080;13.642;2023-11-21T04:21:35;4.70;;;1.00;;
74487;SDS011;63019;51.080;13.642;2023-11-21T04:22:41;8.45;;;1.30;;
74487;SDS011;63019;51.080;13.642;2023-11-21T04:23:46;4.15;;;1.20;;
74487;SDS011;63019;51.080;13.642;2023-11-21T04:24:48;4.28;;;1.58;;
74487;SDS011;63019;51.080;13.642;2023-11-21T04:25:50;6.78;;;1.10;;
74487;SDS011;63019;51.080;13.642;2023-11-21T04:26:53;5.93;;;1.10;;
74487;SDS011;63019;51.080;13.642;2023-11-21T04:27:55;7.45;;;1.30;;
74487;SDS011;63019;51.080;13.642;2023-11-21T04:28:57;3.83;;;1.17;;
74487;SDS011;63019;51.080;13.642;2023-11-21T04:30:00;6.72;;;1.10;;
74487;SDS011;63019;51.080;13.642;2023-11-21T04:31:02;11.20;;;1.30;;
74487;SDS011;63019;51.080;13.642;2023-11-21T04:32:04;4.95;;;1.10;;
74487;SDS011;63019;51.080;13.642;2023-11-21T04:33:06;6.00;;;1.25;;
74487;SDS011;63019;51.080;13.642;2023-11-21T04:34:09;7.30;;;1.38;;
74487;SDS011;63019;51.080;13.642;2023-11-21T04:35:11;5.28;;;1.10;;
74487;SDS011;63019;51.080;13.642;2023-11-21T04:36:13;7.50;;;1.33;;
74487;SDS011;63019;51.080;13.642;2023-11-21T04:37:14;4.40;;;1.20;;
74487;SDS011;63019;51.080;13.642;2023-11-21T04:38:16;3.67;;;1.02;;
74487;SDS011;63019;51.080;13.642;2023-11-21T04:39:18;4.35;;;1.20;;
74487;SDS011;63019;51.080;13.642;2023-11-21T04:40:21;5.28;;;1.20;;
74487;SDS011;63019;51.080;13.642;2023-11-21T04:41:23;4.13;;;1.07;;
74487;SDS011;63019;51.080;13.642;2023-11-21T04:42:24;9.50;;;1.50;;
74487;SDS011;63019;51.080;13.642;2023-11-21T04:43:26;3.85;;;1.42;;
74487;SDS011;63019;51.080;13.642;2023-11-21T04:44:28;5.47;;;1.30;;
74487;SDS011;63019;51.080;13.642;2023-11-21T04:45:30;6.45;;;1.35;;
74487;SDS011;63019;51.080;13.642;2023-11-21T04:46:32;4.78;;;1.40;;
74487;SDS011;63019;51.080;13.642;2023-11-21T04:47:34;6.43;;;1.52;;
74487;SDS011;63019;51.080;13.642;2023-11-21T04:48:37;4.40;;;1.55;;
74487;SDS011;63019;51.080;13.642;2023-11-21T04:49:41;10.05;;;1.70;;
74487;SDS011;63019;51.080;13.642;2023-11-21T04:50:44;4.50;;;1.58;;
74487;SDS011;63019;51.080;13.642;2023-11-21T04:51:46;6.03;;;1.30;;
74487;SDS011;63019;51.080;13.642;2023-11-21T04:52:48;10.65;;;1.65;;
74487;SDS011;63019;51.080;13.642;2023-11-21T04:53:50;5.15;;;1.17;;
74487;SDS011;63019;51.080;13.642;2023-11-21T04:54:51;7.68;;;1.63;;
74487;SDS011;63019;51.080;13.642;2023-11-21T04:55:55;10.68;;;1.23;;
74487;SDS011;63019;51.080;13.642;2023-11-21T04:56:57;4.35;;;1.20;;
74487;SDS011;63019;51.080;13.642;2023-11-21T04:58:00;6.72;;;1.20;;
74487;SDS011;63019;51.080;13.642;2023-11-21T04:59:01;5.18;;;1.27;;
74487;SDS011;63019;51.080;13.642;2023-11-21T05:00:04;6.57;;;1.40;;
74487;SDS011;63019;51.080;13.642;2023-11-21T05:01:07;4.80;;;1.45;;
74487;SDS011;63019;51.080;13.642;2023-11-21T05:02:09;6.90;;;1.60;;
74487;SDS011;63019;51.080;13.642;2023-11-21T05:03:28;4.18;;;1.02;;
74487;SDS011;63019;51.080;13.642;2023-11-21T05:04:31;7.53;;;1.10;;
74487;SDS011;63019;51.080;13.642;2023-11-21T05:05:33;5.15;;;1.40;;
74487;SDS011;63019;51.080;13.642;2023-11-21T05:06:35;4.88;;;1.23;;
74487;SDS011;63019;51.080;13.642;2023-11-21T05:07:37;4.30;;;1.40;;
74487;SDS011;63019;51.080;13.642;2023-11-21T05:08:41;5.63;;;1.45;;
74487;SDS011;63019;51.080;13.642;2023-11-21T05:09:43;8.25;;;1.50;;
74487;SDS011;63019;51.080;13.642;2023-11-21T05:10:47;5.20;;;1.40;;
74487;SDS011;63019;51.080;13.642;2023-11-21T05:11:50;6.25;;;0.90;;
74487;SDS011;63019;51.080;13.642;2023-11-21T05:12:52;5.73;;;1.20;;
74487;SDS011;63019;51.080;13.642;2023-11-21T05:13:54;5.65;;;1.20;;
74487;SDS011;63019;51.080;13.642;2023-11-21T05:14:59;7.10;;;1.63;;
74487;SDS011;63019;51.080;13.642;2023-11-21T05:16:02;9.50;;;1.63;;
74487;SDS011;63019;51.080;13.642;2023-11-21T05:17:08;7.55;;;1.40;;
74487;SDS011;63019;51.080;13.642;2023-11-21T05:18:10;5.63;;;1.25;;
74487;SDS011;63019;51.080;13.642;2023-11-21T05:19:12;8.27;;;1.35;;
74487;SDS011;63019;51.080;13.642;2023-11-21T05:20:15;3.60;;;0.98;;
74487;SDS011;63019;51.080;13.642;2023-11-21T05:21:22;6.90;;;1.20;;
74487;SDS011;63019;51.080;13.642;2023-11-21T05:22:24;6.25;;;1.30;;
74487;SDS011;63019;51.080;13.642;2023-11-21T05:23:26;6.43;;;1.30;;
74487;SDS011;63019;51.080;13.642;2023-11-21T05:24:28;3.45;;;1.15;;
74487;SDS011;63019;51.080;13.642;2023-11-21T05:25:30;6.82;;;1.15;;
74487;SDS011;63019;51.080;13.642;2023-11-21T05:26:33;9.25;;;1.55;;
74487;SDS011;63019;51.080;13.642;2023-11-21T05:27:35;4.25;;;1.00;;
74487;SDS011;63019;51.080;13.642;2023-11-21T05:28:37;8.45;;;1.50;;
74487;SDS011;63019;51.080;13.642;2023-11-21T05:29:39;4.75;;;1.20;;
74487;SDS011;63019;51.080;13.642;2023-11-21T05:30:41;8.85;;;1.60;;
74487;SDS011;63019;51.080;13.642;2023-11-21T05:31:43;3.85;;;1.10;;
74487;SDS011;63019;51.080;13.642;2023-11-21T05:32:45;5.80;;;1.38;;
74487;SDS011;63019;51.080;13.642;2023-11-21T05:33:48;4.87;;;1.30;;
74487;SDS011;63019;51.080;13.642;2023-11-21T05:34:50;2.23;;;1.13;;
74487;SDS011;63019;51.080;13.642;2023-11-21T05:35:52;4.28;;;1.25;;
74487;SDS011;63019;51.080;13.642;2023-11-21T05:36:54;6.88;;;1.40;;
74487;SDS011;63019;51.080;13.642;2023-11-21T05:37:55;3.25;;;1.10;;
74487;SDS011;63019;51.080;13.642;2023-11-21T05:38:57;5.90;;;1.42;;
74487;SDS011;63019;51.080;13.642;2023-11-21T05:39:59;4.35;;;1.27;;
74487;SDS011;63019;51.080;13.642;2023-11-21T05:41:05;8.57;;;1.30;;
74487;SDS011;63019;51.080;13.642;2023-11-21T05:42:07;6.35;;;1.48;;
74487;SDS011;63019;51.080;13.642;2023-11-21T05:43:11;7.57;;;1.33;;
74487;SDS011;63019;51.080;13.642;2023-11-21T05:44:13;3.60;;;1.30;;
74487;SDS011;63019;51.080;13.642;2023-11-21T05:45:15;7.83;;;1.47;;
74487;SDS011;63019;51.080;13.642;2023-11-21T05:46:18;6.88;;;1.38;;
74487;SDS011;63019;51.080;13.642;2023-11-21T05:47:20;4.43;;;1.38;;
74487;SDS011;63019;51.080;13.642;2023-11-21T05:48:23;5.45;;;1.20;;
74487;SDS011;63019;51.080;13.642;2023-11-21T05:49:25;5.38;;;1.30;;
74487;SDS011;63019;51.080;13.642;2023-11-21T05:50:27;6.82;;;1.23;;
74487;SDS011;63019;51.080;13.642;2023-11-21T05:51:29;5.95;;;1.40;;
74487;SDS011;63019;51.080;13.642;2023-11-21T05:52:31;6.07;;;1.42;;
74487;SDS011;63019;51.080;13.642;2023-11-21T05:53:36;7.88;;;1.60;;
74487;SDS011;63019;51.080;13.642;2023-11-21T05:54:38;6.53;;;1.07;;
74487;SDS011;63019;51.080;13.642;2023-11-21T05:55:39;7.88;;;1.40;;
74487;SDS011;63019;51.080;13.642;2023-11-21T05:56:41;3.80;;;1.10;;
74487;SDS011;63019;51.080;13.642;2023-11-21T05:57:43;7.95;;;1.30;;
74487;SDS011;63019;51.080;13.642;2023-11-21T05:58:45;5.63;;;1.20;;
74487;SDS011;63019;51.080;13.642;2023-11-21T05:59:47;4.13;;;1.52;;
74487;SDS011;63019;51.080;13.642;2023-11-21T06:00:49;6.53;;;1.50;;
74487;SDS011;63019;51.080;13.642;2023-11-21T06:01:51;5.53;;;1.30;;
74487;SDS011;63019;51.080;13.642;2023-11-21T06:02:53;2.97;;;1.13;;
74487;SDS011;63019;51.080;13.642;2023-11-21T06:03:56;7.72;;;1.60;;
74487;SDS011;63019;51.080;13.642;2023-11-21T06:04:58;8.60;;;1.40;;
74487;SDS011;63019;51.080;13.642;2023-11-21T06:06:00;5.70;;;1.42;;
74487;SDS011;63019;51.080;13.642;2023-11-21T06:07:02;6.40;;;1.20;;
74487;SDS011;63019;51.080;13.642;2023-11-21T06:08:05;6.85;;;1.50;;
74487;SDS011;63019;51.080;13.642;2023-11-21T06:09:08;4.82;;;1.27;;
74487;SDS011;63019;51.080;13.642;2023-11-21T06:10:10;6.10;;;1.42;;
74487;SDS011;63019;51.080;13.642;2023-11-21T06:11:16;4.90;;;1.42;;